Archiv

Tageswerte

Alle gespeicherten Messwerte deiner Wetterstation.

Ausgewählter Tag07.01.2024
← Vortag Nächster Tag → Heute
Messpunkte288
Max Temperatur-1,4 °C
Min Temperatur-4,7 °C
Ø Temperatur-3,4 °C
Regen0,0 mm
Stärkste Böe21,9 km/h

Messwerte vom 07.01.2024

288 gespeicherte Messwerte

Diagramm anzeigen
ZeitTemperaturFeuchteDruckWindBöeRichtungRegenUVHelligkeit
23:59-4,6 °C77 %1.013,9 hPa1,3 km/h2,7 km/h292°0,0 mm
23:54-4,6 °C77 %1.013,9 hPa1,8 km/h6,4 km/h291°0,0 mm
23:49-4,7 °C77 %1.013,9 hPa2,1 km/h7,9 km/h301°0,0 mm
23:44-4,7 °C77 %1.013,9 hPa1,5 km/h3,9 km/h286°0,0 mm
23:39-4,7 °C77 %1.013,9 hPa1,8 km/h3,9 km/h287°0,0 mm
23:34-4,7 °C77 %1.013,9 hPa2,0 km/h6,1 km/h294°0,0 mm
23:29-4,7 °C77 %1.013,9 hPa2,2 km/h6,1 km/h170°0,0 mm
23:24-4,7 °C77 %1.013,9 hPa1,4 km/h3,2 km/h196°0,0 mm
23:19-4,7 °C77 %1.013,9 hPa1,9 km/h5,3 km/h296°0,0 mm
23:14-4,7 °C77 %1.013,9 hPa3,2 km/h6,4 km/h116°0,0 mm
23:09-4,7 °C76 %1.013,9 hPa4,5 km/h8,5 km/h310°0,0 mm
23:04-4,7 °C78 %1.013,9 hPa4,8 km/h12,9 km/h345°0,0 mm
22:59-4,6 °C79 %1.013,9 hPa3,3 km/h7,9 km/h268°0,0 mm
22:54-4,6 °C79 %1.013,9 hPa3,7 km/h10,3 km/h307°0,0 mm
22:49-4,6 °C79 %1.013,9 hPa2,7 km/h6,8 km/h290°0,0 mm
22:44-4,5 °C79 %1.013,9 hPa2,9 km/h8,9 km/h302°0,0 mm
22:39-4,5 °C78 %1.013,9 hPa3,2 km/h8,5 km/h301°0,0 mm
22:34-4,5 °C78 %1.013,9 hPa3,2 km/h7,4 km/h310°0,0 mm
22:29-4,4 °C77 %1.013,9 hPa2,8 km/h6,4 km/h322°0,0 mm
22:24-4,4 °C77 %1.013,9 hPa1,6 km/h6,4 km/h44°0,0 mm
22:19-4,4 °C76 %1.013,9 hPa3,1 km/h8,5 km/h305°0,0 mm
22:14-4,3 °C76 %1.013,9 hPa4,1 km/h8,5 km/h248°0,0 mm
22:09-4,3 °C76 %1.013,9 hPa3,2 km/h8,9 km/h306°0,0 mm
22:04-4,2 °C77 %1.013,9 hPa4,2 km/h9,3 km/h297°0,0 mm
21:59-4,2 °C77 %1.013,9 hPa3,4 km/h6,8 km/h299°0,0 mm
21:54-4,2 °C77 %1.013,9 hPa3,6 km/h9,3 km/h309°0,0 mm
21:49-4,2 °C76 %1.013,9 hPa2,5 km/h8,9 km/h280°0,0 mm
21:44-4,1 °C75 %1.013,9 hPa2,2 km/h8,5 km/h301°0,0 mm
21:39-4,1 °C75 %1.013,9 hPa4,1 km/h12,2 km/h290°0,0 mm
21:34-4,0 °C75 %1.013,9 hPa3,9 km/h9,3 km/h266°0,0 mm
21:29-4,0 °C74 %1.013,9 hPa3,5 km/h8,9 km/h295°0,0 mm
21:24-3,9 °C75 %1.013,9 hPa3,8 km/h8,5 km/h350°0,0 mm
21:19-3,9 °C75 %1.013,9 hPa2,9 km/h8,5 km/h312°0,0 mm
21:14-3,9 °C75 %1.013,9 hPa2,7 km/h9,3 km/h283°0,0 mm
21:09-3,9 °C74 %1.013,9 hPa3,1 km/h7,4 km/h320°0,0 mm
21:04-3,8 °C74 %1.013,9 hPa2,6 km/h6,8 km/h271°0,0 mm
20:59-3,8 °C74 %1.013,9 hPa4,8 km/h10,3 km/h53°0,0 mm
20:54-3,7 °C74 %1.013,9 hPa4,1 km/h9,7 km/h45°0,0 mm
20:49-3,6 °C74 %1.013,9 hPa6,0 km/h16,4 km/h296°0,0 mm
20:44-3,5 °C73 %1.013,9 hPa4,4 km/h9,3 km/h258°0,0 mm
20:39-3,5 °C74 %1.013,9 hPa6,4 km/h15,8 km/h298°0,0 mm
20:34-3,5 °C77 %1.013,9 hPa6,7 km/h18,7 km/h308°0,0 mm
20:29-3,4 °C78 %1.013,9 hPa4,6 km/h11,4 km/h309°0,0 mm
20:24-3,5 °C78 %1.013,9 hPa3,3 km/h8,5 km/h271°0,0 mm
20:19-3,5 °C79 %1.013,9 hPa3,2 km/h6,8 km/h316°0,0 mm
20:14-3,5 °C79 %1.012,9 hPa2,5 km/h8,5 km/h153°0,0 mm
20:09-3,5 °C79 %1.012,9 hPa3,3 km/h10,3 km/h288°0,0 mm
20:04-3,6 °C80 %1.012,9 hPa5,8 km/h21,1 km/h345°0,0 mm
19:59-3,6 °C80 %1.013,9 hPa5,7 km/h12,2 km/h264°0,0 mm
19:54-3,5 °C80 %1.013,9 hPa5,6 km/h20,4 km/h290°0,0 mm
19:49-3,5 °C79 %1.013,9 hPa5,0 km/h12,6 km/h301°0,0 mm
19:44-3,5 °C79 %1.012,9 hPa6,7 km/h21,9 km/h309°0,0 mm
19:39-3,5 °C79 %1.012,9 hPa3,8 km/h10,8 km/h300°0,0 mm
19:34-3,5 °C79 %1.012,9 hPa6,0 km/h19,8 km/h38°0,0 mm
19:29-3,5 °C78 %1.012,9 hPa5,2 km/h19,8 km/h275°0,0 mm
19:24-3,5 °C80 %1.012,9 hPa2,3 km/h5,6 km/h265°0,0 mm
19:19-3,5 °C81 %1.012,9 hPa2,2 km/h6,4 km/h271°0,0 mm
19:14-3,6 °C81 %1.012,9 hPa2,3 km/h8,2 km/h302°0,0 mm
19:09-3,6 °C80 %1.012,9 hPa2,8 km/h8,9 km/h295°0,0 mm
19:04-3,6 °C80 %1.012,9 hPa3,6 km/h7,4 km/h288°0,0 mm
18:59-3,6 °C80 %1.012,9 hPa7,7 km/h18,3 km/h314°0,0 mm
18:54-3,6 °C80 %1.012,9 hPa4,4 km/h17,2 km/h293°0,0 mm
18:49-3,6 °C80 %1.012,9 hPa4,1 km/h9,7 km/h294°0,0 mm
18:44-3,6 °C79 %1.012,9 hPa2,7 km/h10,8 km/h297°0,0 mm
18:39-3,6 °C78 %1.012,9 hPa5,9 km/h11,1 km/h277°0,0 mm
18:34-3,6 °C78 %1.012,9 hPa6,2 km/h18,7 km/h282°0,0 mm
18:29-3,6 °C79 %1.012,9 hPa3,5 km/h10,3 km/h295°0,0 mm
18:24-3,6 °C79 %1.012,9 hPa2,5 km/h10,8 km/h307°0,0 mm
18:19-3,6 °C78 %1.012,9 hPa3,7 km/h13,2 km/h291°0,0 mm
18:14-3,6 °C78 %1.012,9 hPa2,8 km/h5,6 km/h84°0,0 mm
18:09-3,6 °C78 %1.012,9 hPa3,7 km/h8,5 km/h295°0,0 mm
18:04-3,5 °C79 %1.012,9 hPa4,2 km/h11,4 km/h307°0,0 mm
17:59-3,6 °C79 %1.012,9 hPa2,5 km/h8,2 km/h351°0,0 mm
17:54-3,6 °C78 %1.012,9 hPa3,1 km/h9,3 km/h258°0,0 mm
17:49-3,6 °C78 %1.012,9 hPa4,0 km/h9,7 km/h291°0,0 mm
17:44-3,6 °C78 %1.012,9 hPa3,0 km/h6,8 km/h308°0,0 mm
17:39-3,6 °C79 %1.012,9 hPa3,0 km/h7,4 km/h319°0,0 mm
17:34-3,6 °C78 %1.012,9 hPa2,2 km/h7,9 km/h285°0,0 mm
17:29-3,6 °C78 %1.011,9 hPa1,5 km/h3,5 km/h285°0,0 mm
17:24-3,6 °C78 %1.011,9 hPa2,4 km/h6,4 km/h255°0,0 mm
17:19-3,6 °C78 %1.011,9 hPa2,8 km/h11,1 km/h283°0,0 mm
17:14-3,6 °C78 %1.011,9 hPa3,0 km/h8,5 km/h314°0,0 mm
17:09-3,6 °C78 %1.011,9 hPa2,8 km/h7,4 km/h299°0,0 mm
17:04-3,6 °C78 %1.011,9 hPa3,2 km/h8,9 km/h308°0,0 mm
16:59-3,7 °C78 %1.011,9 hPa2,3 km/h8,2 km/h300°0,0 mm
16:54-3,7 °C79 %1.011,9 hPa2,7 km/h9,7 km/h322°0,0 mm
16:49-3,7 °C79 %1.011,9 hPa2,2 km/h6,1 km/h307°0,0 mm
16:44-3,7 °C78 %1.011,9 hPa1,2 km/h3,5 km/h272°0,0 mm
16:39-3,7 °C78 %1.011,9 hPa1,7 km/h6,1 km/h250°0,0 mm
16:34-3,7 °C78 %1.011,9 hPa2,6 km/h8,2 km/h257°0,0 mm
16:29-3,7 °C78 %1.011,9 hPa2,1 km/h7,9 km/h300°0,0 mm
16:24-3,8 °C77 %1.011,9 hPa1,5 km/h6,4 km/h298°0,0 mm
16:19-3,8 °C77 %1.011,9 hPa2,2 km/h7,4 km/h311°0,0 mm
16:14-3,8 °C76 %1.011,9 hPa2,6 km/h7,1 km/h305°0,0 mm
16:09-3,8 °C77 %1.011,9 hPa2,5 km/h6,4 km/h302°0,0 mm
16:04-3,8 °C76 %1.011,9 hPa3,7 km/h8,5 km/h258°0,0 mm
15:59-3,7 °C76 %1.011,9 hPa3,0 km/h6,4 km/h257°0,0 mm
15:54-3,7 °C76 %1.011,9 hPa3,0 km/h7,1 km/h332°0,0 mm
15:49-3,7 °C76 %1.011,9 hPa3,4 km/h7,4 km/h164°0,0 mm
15:44-3,7 °C76 %1.011,9 hPa4,1 km/h9,3 km/h273°0,0 mm
15:39-3,8 °C76 %1.011,9 hPa3,8 km/h7,9 km/h289°0,0 mm
15:34-3,8 °C76 %1.011,9 hPa2,1 km/h5,6 km/h285°0,0 mm
15:29-3,8 °C76 %1.011,9 hPa2,9 km/h7,9 km/h281°0,0 mm
15:24-3,8 °C76 %1.011,9 hPa2,9 km/h6,4 km/h27°0,0 mm
15:19-3,8 °C76 %1.011,9 hPa1,1 km/h2,7 km/h346°0,0 mm
15:14-3,8 °C76 %1.011,9 hPa2,8 km/h9,3 km/h302°0,0 mm
15:09-3,8 °C76 %1.011,9 hPa3,2 km/h8,5 km/h35°0,0 mm
15:04-3,8 °C75 %1.011,9 hPa3,5 km/h7,9 km/h236°0,0 mm
14:59-3,8 °C75 %1.011,9 hPa2,8 km/h8,9 km/h235°0,0 mm
14:54-3,8 °C76 %1.011,9 hPa4,0 km/h8,5 km/h259°0,0 mm
14:49-3,9 °C76 %1.011,9 hPa3,2 km/h6,4 km/h307°0,0 mm
14:44-3,9 °C77 %1.010,8 hPa1,7 km/h7,9 km/h142°0,0 mm
14:39-4,0 °C77 %1.010,8 hPa2,6 km/h7,9 km/h302°0,0 mm
14:34-4,0 °C76 %1.010,8 hPa3,9 km/h8,2 km/h0,0 mm
14:29-4,0 °C76 %1.010,8 hPa4,7 km/h11,1 km/h64°0,0 mm
14:24-4,0 °C76 %1.010,8 hPa6,0 km/h15,8 km/h127°0,0 mm
14:19-4,0 °C76 %1.010,8 hPa6,3 km/h12,6 km/h111°0,0 mm
14:14-4,0 °C76 %1.010,8 hPa6,3 km/h12,6 km/h50°0,0 mm
14:09-4,0 °C76 %1.010,8 hPa5,1 km/h12,2 km/h280°0,0 mm
14:04-4,0 °C76 %1.010,8 hPa4,5 km/h9,7 km/h284°0,0 mm
13:59-4,0 °C76 %1.010,8 hPa6,7 km/h12,6 km/h306°0,0 mm
13:54-4,0 °C76 %1.010,8 hPa6,0 km/h10,8 km/h208°0,0 mm
13:49-4,1 °C76 %1.010,8 hPa2,7 km/h5,6 km/h282°0,0 mm
13:44-4,1 °C75 %1.010,8 hPa4,9 km/h9,3 km/h341°0,0 mm
13:39-4,1 °C75 %1.010,8 hPa4,7 km/h9,3 km/h282°0,0 mm
13:34-4,2 °C75 %1.010,8 hPa5,1 km/h10,3 km/h214°0,0 mm
13:29-4,2 °C75 %1.010,8 hPa2,8 km/h8,5 km/h359°0,0 mm
13:24-4,2 °C74 %1.010,8 hPa4,8 km/h8,5 km/h158°0,0 mm
13:19-4,1 °C74 %1.010,8 hPa4,8 km/h9,3 km/h86°0,0 mm
13:14-4,1 °C75 %1.010,8 hPa4,0 km/h8,5 km/h303°0,0 mm
13:09-4,1 °C74 %1.010,8 hPa4,1 km/h8,5 km/h288°0,0 mm
13:04-4,1 °C74 %1.010,8 hPa4,5 km/h7,9 km/h300°0,0 mm
12:59-4,1 °C74 %1.010,8 hPa3,2 km/h7,4 km/h266°0,0 mm
12:54-4,1 °C74 %1.010,8 hPa4,5 km/h8,9 km/h345°0,0 mm
12:49-4,1 °C75 %1.010,8 hPa4,0 km/h12,2 km/h304°0,0 mm
12:44-4,1 °C74 %1.009,8 hPa5,0 km/h8,9 km/h143°0,0 mm
12:39-4,2 °C75 %1.009,8 hPa4,0 km/h7,9 km/h272°0,0 mm
12:34-4,1 °C76 %1.009,8 hPa4,8 km/h9,3 km/h274°0,0 mm
12:29-4,1 °C77 %1.009,8 hPa3,7 km/h7,9 km/h199°0,0 mm
12:24-4,2 °C78 %1.009,8 hPa2,9 km/h6,8 km/h293°0,0 mm
12:19-4,2 °C78 %1.009,8 hPa1,8 km/h6,8 km/h313°0,0 mm
12:14-4,2 °C78 %1.009,8 hPa3,8 km/h8,5 km/h46°0,0 mm
12:09-4,2 °C78 %1.009,8 hPa3,4 km/h7,9 km/h129°0,0 mm
12:04-4,1 °C78 %1.009,8 hPa3,7 km/h6,8 km/h315°0,0 mm
11:59-4,0 °C77 %1.010,8 hPa4,3 km/h9,7 km/h261°0,0 mm
11:54-3,9 °C77 %1.010,8 hPa4,6 km/h8,9 km/h281°0,0 mm
11:49-3,9 °C78 %1.010,8 hPa2,6 km/h6,4 km/h301°0,0 mm
11:44-3,9 °C78 %1.009,8 hPa3,2 km/h6,4 km/h280°0,0 mm
11:39-3,9 °C78 %1.009,8 hPa3,2 km/h14,3 km/h304°0,0 mm
11:34-3,9 °C78 %1.009,8 hPa3,5 km/h8,9 km/h269°0,0 mm
11:29-3,9 °C79 %1.009,8 hPa2,5 km/h6,1 km/h259°0,0 mm
11:24-3,9 °C80 %1.009,8 hPa4,5 km/h12,2 km/h293°0,0 mm
11:19-3,9 °C80 %1.009,8 hPa2,8 km/h7,9 km/h307°0,0 mm
11:14-3,9 °C80 %1.009,8 hPa4,6 km/h11,1 km/h295°0,0 mm
11:09-3,9 °C80 %1.009,8 hPa3,2 km/h12,2 km/h226°0,0 mm
11:04-3,9 °C80 %1.009,8 hPa3,4 km/h8,9 km/h293°0,0 mm
10:59-3,9 °C80 %1.009,8 hPa3,0 km/h8,5 km/h299°0,0 mm
10:54-3,8 °C81 %1.009,8 hPa3,4 km/h10,8 km/h257°0,0 mm
10:49-3,8 °C82 %1.009,8 hPa4,3 km/h9,3 km/h324°0,0 mm
10:44-3,8 °C83 %1.009,8 hPa1,8 km/h5,0 km/h304°0,0 mm
10:39-3,8 °C83 %1.009,8 hPa2,0 km/h7,4 km/h334°0,0 mm
10:34-3,9 °C83 %1.009,8 hPa2,9 km/h7,9 km/h262°0,0 mm
10:29-3,9 °C83 %1.009,8 hPa2,5 km/h9,3 km/h297°0,0 mm
10:24-3,9 °C83 %1.009,8 hPa2,1 km/h5,3 km/h298°0,0 mm
10:19-3,9 °C83 %1.009,8 hPa3,0 km/h9,3 km/h297°0,0 mm
10:14-3,8 °C83 %1.009,8 hPa3,9 km/h12,6 km/h355°0,0 mm
10:09-3,8 °C83 %1.009,8 hPa2,9 km/h6,8 km/h300°0,0 mm
10:04-3,8 °C83 %1.009,8 hPa2,8 km/h6,8 km/h293°0,0 mm
09:59-3,8 °C82 %1.009,8 hPa3,9 km/h10,0 km/h233°0,0 mm
09:54-3,8 °C82 %1.009,8 hPa3,2 km/h8,5 km/h102°0,0 mm
09:49-3,8 °C82 %1.009,8 hPa4,9 km/h8,9 km/h321°0,0 mm
09:44-3,7 °C82 %1.009,8 hPa3,4 km/h7,9 km/h15°0,0 mm
09:39-3,7 °C83 %1.009,8 hPa3,8 km/h8,5 km/h207°0,0 mm
09:34-3,7 °C83 %1.009,8 hPa2,9 km/h6,8 km/h334°0,0 mm
09:29-3,7 °C84 %1.008,8 hPa2,5 km/h5,3 km/h255°0,0 mm
09:24-3,6 °C84 %1.008,8 hPa4,4 km/h9,3 km/h268°0,0 mm
09:19-3,5 °C84 %1.008,8 hPa3,5 km/h8,9 km/h11°0,0 mm
09:14-3,5 °C85 %1.008,8 hPa3,9 km/h11,1 km/h300°0,0 mm
09:09-3,5 °C86 %1.008,8 hPa4,2 km/h7,4 km/h103°0,0 mm
09:04-3,5 °C86 %1.008,8 hPa2,0 km/h6,8 km/h282°0,0 mm
08:59-3,5 °C85 %1.008,8 hPa4,6 km/h9,3 km/h297°0,0 mm
08:54-3,5 °C86 %1.008,8 hPa3,6 km/h6,8 km/h268°0,0 mm
08:49-3,5 °C87 %1.008,8 hPa4,1 km/h8,5 km/h13°0,0 mm
08:44-3,4 °C87 %1.008,8 hPa2,8 km/h8,9 km/h314°0,0 mm
08:39-3,4 °C87 %1.008,8 hPa3,0 km/h6,8 km/h319°0,0 mm
08:34-3,4 °C87 %1.008,8 hPa3,0 km/h6,8 km/h289°0,0 mm
08:29-3,4 °C87 %1.008,8 hPa2,9 km/h6,4 km/h317°0,0 mm
08:24-3,4 °C87 %1.008,8 hPa4,3 km/h9,7 km/h106°0,0 mm
08:19-3,4 °C86 %1.008,8 hPa3,1 km/h8,2 km/h293°0,0 mm
08:14-3,4 °C86 %1.007,8 hPa2,7 km/h6,8 km/h261°0,0 mm
08:09-3,4 °C86 %1.007,8 hPa3,9 km/h8,5 km/h324°0,0 mm
08:04-3,4 °C86 %1.007,8 hPa4,2 km/h10,8 km/h289°0,0 mm
07:59-3,4 °C86 %1.007,8 hPa3,1 km/h7,9 km/h235°0,0 mm
07:54-3,4 °C85 %1.007,8 hPa6,4 km/h20,1 km/h223°0,0 mm
07:49-3,3 °C86 %1.007,8 hPa4,6 km/h11,4 km/h273°0,0 mm
07:44-3,3 °C87 %1.007,8 hPa2,8 km/h8,2 km/h269°0,0 mm
07:39-3,3 °C87 %1.007,8 hPa3,2 km/h8,5 km/h349°0,0 mm
07:34-3,3 °C87 %1.007,8 hPa4,2 km/h8,9 km/h255°0,0 mm
07:29-3,3 °C86 %1.007,8 hPa4,0 km/h7,4 km/h268°0,0 mm
07:24-3,3 °C87 %1.007,8 hPa4,6 km/h10,8 km/h254°0,0 mm
07:19-3,2 °C87 %1.007,8 hPa4,0 km/h8,5 km/h105°0,0 mm
07:14-3,2 °C88 %1.007,8 hPa2,1 km/h6,1 km/h289°0,0 mm
07:09-3,2 °C88 %1.007,8 hPa3,2 km/h6,8 km/h273°0,0 mm
07:04-3,2 °C88 %1.007,8 hPa3,8 km/h7,4 km/h276°0,0 mm
06:59-3,2 °C88 %1.006,8 hPa5,3 km/h8,9 km/h204°0,0 mm
06:54-3,1 °C89 %1.006,8 hPa3,9 km/h9,3 km/h261°0,0 mm
06:49-3,1 °C89 %1.006,8 hPa5,9 km/h13,2 km/h328°0,0 mm
06:44-3,1 °C89 %1.007,8 hPa6,1 km/h12,2 km/h225°0,0 mm
06:39-3,1 °C90 %1.007,8 hPa5,2 km/h12,6 km/h291°0,0 mm
06:34-3,1 °C90 %1.007,8 hPa2,8 km/h7,9 km/h272°0,0 mm
06:29-3,1 °C90 %1.006,8 hPa4,6 km/h8,2 km/h248°0,0 mm
06:24-3,0 °C90 %1.006,8 hPa3,3 km/h7,1 km/h269°0,0 mm
06:19-3,0 °C90 %1.006,8 hPa4,4 km/h9,3 km/h247°0,0 mm
06:14-3,0 °C90 %1.006,8 hPa3,5 km/h8,5 km/h265°0,0 mm
06:09-3,0 °C90 %1.006,8 hPa2,5 km/h6,8 km/h271°0,0 mm
06:04-3,0 °C90 %1.006,8 hPa3,7 km/h8,5 km/h270°0,0 mm
05:59-2,9 °C91 %1.006,8 hPa3,0 km/h7,9 km/h359°0,0 mm
05:54-2,9 °C91 %1.006,8 hPa3,7 km/h8,2 km/h153°0,0 mm
05:49-2,9 °C90 %1.006,8 hPa6,3 km/h20,8 km/h182°0,0 mm
05:44-2,9 °C90 %1.006,8 hPa4,2 km/h16,1 km/h101°0,0 mm
05:39-2,9 °C90 %1.006,8 hPa5,2 km/h11,4 km/h212°0,0 mm
05:34-2,9 °C91 %1.006,8 hPa3,5 km/h8,9 km/h284°0,0 mm
05:29-2,9 °C91 %1.006,8 hPa3,8 km/h10,8 km/h90°0,0 mm
05:24-2,9 °C91 %1.006,8 hPa4,9 km/h16,1 km/h156°0,0 mm
05:19-2,8 °C91 %1.006,8 hPa4,1 km/h8,9 km/h168°0,0 mm
05:14-2,8 °C91 %1.006,8 hPa4,3 km/h8,5 km/h76°0,0 mm
05:09-2,8 °C92 %1.006,8 hPa3,6 km/h9,3 km/h328°0,0 mm
05:04-2,8 °C93 %1.006,8 hPa2,7 km/h8,5 km/h37°0,0 mm
04:59-2,8 °C93 %1.006,8 hPa2,3 km/h5,6 km/h99°0,0 mm
04:54-2,8 °C93 %1.006,8 hPa3,3 km/h11,1 km/h257°0,0 mm
04:49-2,8 °C93 %1.006,8 hPa2,4 km/h7,1 km/h211°0,0 mm
04:44-2,7 °C93 %1.006,1 hPa2,6 km/h7,4 km/h292°0,0 mm
04:39-2,7 °C93 %1.006,1 hPa3,4 km/h6,8 km/h287°0,0 mm
04:34-2,6 °C93 %1.006,1 hPa3,8 km/h10,8 km/h166°0,0 mm
04:29-2,6 °C93 %1.006,1 hPa2,8 km/h7,4 km/h295°0,0 mm
04:24-2,6 °C93 %1.006,1 hPa3,8 km/h7,9 km/h288°0,0 mm
04:19-2,6 °C93 %1.006,1 hPa3,9 km/h8,5 km/h324°0,0 mm
04:14-2,6 °C93 %1.006,8 hPa2,5 km/h7,4 km/h106°0,0 mm
04:09-2,5 °C93 %1.006,8 hPa3,5 km/h8,2 km/h241°0,0 mm
04:04-2,5 °C93 %1.006,8 hPa3,0 km/h7,4 km/h202°0,0 mm
03:59-2,5 °C94 %1.006,1 hPa3,0 km/h9,3 km/h294°0,0 mm
03:54-2,5 °C94 %1.006,1 hPa3,5 km/h8,5 km/h21°0,0 mm
03:49-2,5 °C94 %1.006,1 hPa3,5 km/h7,1 km/h285°0,0 mm
03:44-2,5 °C94 %1.006,1 hPa4,5 km/h10,8 km/h42°0,0 mm
03:39-2,5 °C94 %1.006,1 hPa3,2 km/h7,4 km/h134°0,0 mm
03:34-2,4 °C94 %1.006,1 hPa4,2 km/h10,3 km/h290°0,0 mm
03:29-2,4 °C94 %1.006,1 hPa4,5 km/h15,0 km/h287°0,0 mm
03:24-2,4 °C94 %1.006,1 hPa3,0 km/h13,2 km/h155°0,0 mm
03:19-2,4 °C94 %1.006,1 hPa2,5 km/h5,6 km/h294°0,0 mm
03:14-2,4 °C94 %1.006,1 hPa3,0 km/h5,6 km/h275°0,0 mm
03:09-2,4 °C94 %1.006,1 hPa2,6 km/h5,6 km/h276°0,0 mm
03:04-2,4 °C94 %1.006,1 hPa3,2 km/h8,5 km/h328°0,0 mm
02:59-2,4 °C94 %1.006,1 hPa2,9 km/h8,5 km/h285°0,0 mm
02:54-2,4 °C94 %1.006,1 hPa3,3 km/h7,9 km/h153°0,0 mm
02:49-2,4 °C95 %1.006,1 hPa2,7 km/h8,5 km/h40°0,0 mm
02:44-2,4 °C94 %1.006,1 hPa1,8 km/h5,6 km/h239°0,0 mm
02:39-2,4 °C94 %1.006,1 hPa2,6 km/h5,6 km/h297°0,0 mm
02:34-2,4 °C95 %1.006,1 hPa4,7 km/h8,9 km/h288°0,0 mm
02:29-2,3 °C95 %1.006,1 hPa2,9 km/h6,4 km/h328°0,0 mm
02:24-2,3 °C95 %1.006,1 hPa2,6 km/h5,6 km/h0,0 mm
02:19-2,2 °C95 %1.006,1 hPa2,5 km/h6,4 km/h85°0,0 mm
02:14-2,2 °C95 %1.006,1 hPa4,0 km/h8,9 km/h87°0,0 mm
02:09-2,2 °C95 %1.006,1 hPa1,4 km/h3,9 km/h280°0,0 mm
02:04-2,2 °C95 %1.006,1 hPa1,7 km/h3,9 km/h309°0,0 mm
01:59-2,2 °C96 %1.005,1 hPa2,9 km/h8,9 km/h52°0,0 mm
01:54-2,1 °C96 %1.005,1 hPa3,9 km/h6,8 km/h359°0,0 mm
01:49-2,0 °C96 %1.005,1 hPa2,9 km/h5,3 km/h132°0,0 mm
01:44-2,0 °C96 %1.005,1 hPa3,2 km/h8,5 km/h117°0,0 mm
01:39-2,0 °C96 %1.005,1 hPa1,9 km/h3,9 km/h68°0,0 mm
01:34-2,0 °C96 %1.005,1 hPa2,1 km/h7,1 km/h202°0,0 mm
01:29-2,0 °C96 %1.005,1 hPa3,3 km/h9,7 km/h55°0,0 mm
01:24-2,0 °C96 %1.005,1 hPa3,4 km/h7,9 km/h275°0,0 mm
01:19-2,0 °C96 %1.005,1 hPa2,6 km/h5,3 km/h220°0,0 mm
01:14-1,9 °C96 %1.005,1 hPa2,4 km/h7,4 km/h307°0,0 mm
01:09-1,9 °C96 %1.005,1 hPa2,7 km/h6,4 km/h238°0,0 mm
01:04-1,9 °C96 %1.005,1 hPa3,6 km/h7,4 km/h0,0 mm
00:59-1,8 °C96 %1.005,1 hPa2,7 km/h8,9 km/h153°0,0 mm
00:54-1,7 °C96 %1.005,1 hPa2,6 km/h5,6 km/h254°0,0 mm
00:49-1,7 °C96 %1.005,1 hPa2,5 km/h3,9 km/h287°0,0 mm
00:44-1,7 °C96 %1.005,1 hPa2,5 km/h5,3 km/h269°0,0 mm
00:39-1,6 °C96 %1.005,1 hPa2,5 km/h6,4 km/h244°0,0 mm
00:34-1,6 °C96 %1.005,1 hPa3,3 km/h7,4 km/h318°0,0 mm
00:29-1,6 °C96 %1.005,1 hPa3,0 km/h6,4 km/h292°0,0 mm
00:24-1,6 °C96 %1.005,1 hPa3,5 km/h7,4 km/h244°0,0 mm
00:19-1,5 °C96 %1.005,1 hPa2,8 km/h8,2 km/h357°0,0 mm
00:14-1,5 °C96 %1.005,1 hPa2,9 km/h10,0 km/h185°0,0 mm
00:09-1,5 °C96 %1.005,1 hPa3,3 km/h6,8 km/h282°0,0 mm
00:04-1,4 °C96 %1.005,1 hPa4,4 km/h8,9 km/h167°0,0 mm